sensor_id;sensor_type;location;lat;lon;timestamp;P1;durP1;ratioP1;P2;durP2;ratioP2
8871;SDS011;4472;52.092;9.820;2022-10-03T00:00:18;11.80;;;3.13;;
8871;SDS011;4472;52.092;9.820;2022-10-03T00:06:23;8.40;;;3.33;;
8871;SDS011;4472;52.092;9.820;2022-10-03T00:09:21;10.30;;;3.00;;
8871;SDS011;4472;52.092;9.820;2022-10-03T00:12:39;10.07;;;3.10;;
8871;SDS011;4472;52.092;9.820;2022-10-03T00:15:33;11.73;;;2.80;;
8871;SDS011;4472;52.092;9.820;2022-10-03T00:18:30;16.47;;;2.77;;
8871;SDS011;4472;52.092;9.820;2022-10-03T00:21:26;11.80;;;2.77;;
8871;SDS011;4472;52.092;9.820;2022-10-03T00:24:22;9.23;;;2.73;;
8871;SDS011;4472;52.092;9.820;2022-10-03T00:27:17;13.77;;;2.93;;
8871;SDS011;4472;52.092;9.820;2022-10-03T00:30:15;16.97;;;2.93;;
8871;SDS011;4472;52.092;9.820;2022-10-03T00:33:09;9.47;;;2.70;;
8871;SDS011;4472;52.092;9.820;2022-10-03T00:36:07;9.57;;;2.27;;
8871;SDS011;4472;52.092;9.820;2022-10-03T00:42:23;14.07;;;3.00;;
8871;SDS011;4472;52.092;9.820;2022-10-03T00:45:43;13.30;;;3.30;;
8871;SDS011;4472;52.092;9.820;2022-10-03T00:49:08;10.47;;;3.00;;
8871;SDS011;4472;52.092;9.820;2022-10-03T00:52:24;12.00;;;2.80;;
8871;SDS011;4472;52.092;9.820;2022-10-03T00:55:25;12.20;;;2.80;;
8871;SDS011;4472;52.092;9.820;2022-10-03T00:58:24;8.67;;;2.30;;
8871;SDS011;4472;52.092;9.820;2022-10-03T01:01:31;9.63;;;2.70;;
8871;SDS011;4472;52.092;9.820;2022-10-03T01:04:28;11.30;;;2.87;;
8871;SDS011;4472;52.092;9.820;2022-10-03T01:07:29;9.93;;;2.80;;
8871;SDS011;4472;52.092;9.820;2022-10-03T01:10:33;6.10;;;2.50;;
8871;SDS011;4472;52.092;9.820;2022-10-03T01:13:30;10.13;;;2.33;;
8871;SDS011;4472;52.092;9.820;2022-10-03T01:16:32;10.30;;;3.03;;
8871;SDS011;4472;52.092;9.820;2022-10-03T01:19:34;13.23;;;2.80;;
8871;SDS011;4472;52.092;9.820;2022-10-03T01:22:42;9.93;;;2.60;;
8871;SDS011;4472;52.092;9.820;2022-10-03T01:25:57;12.97;;;2.87;;
8871;SDS011;4472;52.092;9.820;2022-10-03T01:28:55;10.90;;;2.77;;
8871;SDS011;4472;52.092;9.820;2022-10-03T01:32:05;13.27;;;3.07;;
8871;SDS011;4472;52.092;9.820;2022-10-03T01:34:59;8.90;;;3.00;;
8871;SDS011;4472;52.092;9.820;2022-10-03T01:37:57;10.40;;;2.77;;
8871;SDS011;4472;52.092;9.820;2022-10-03T01:40:56;9.20;;;2.93;;
8871;SDS011;4472;52.092;9.820;2022-10-03T01:43:48;7.93;;;2.80;;
8871;SDS011;4472;52.092;9.820;2022-10-03T01:46:43;10.37;;;2.67;;
8871;SDS011;4472;52.092;9.820;2022-10-03T01:49:37;11.97;;;3.00;;
8871;SDS011;4472;52.092;9.820;2022-10-03T01:52:32;14.73;;;2.93;;
8871;SDS011;4472;52.092;9.820;2022-10-03T01:55:29;9.53;;;2.67;;
8871;SDS011;4472;52.092;9.820;2022-10-03T01:58:22;10.53;;;3.13;;
8871;SDS011;4472;52.092;9.820;2022-10-03T02:01:18;8.30;;;2.83;;
8871;SDS011;4472;52.092;9.820;2022-10-03T02:04:13;15.73;;;2.97;;
8871;SDS011;4472;52.092;9.820;2022-10-03T02:07:10;8.47;;;2.90;;
8871;SDS011;4472;52.092;9.820;2022-10-03T02:10:08;11.00;;;2.63;;
8871;SDS011;4472;52.092;9.820;2022-10-03T02:13:07;12.67;;;2.90;;
8871;SDS011;4472;52.092;9.820;2022-10-03T02:16:01;11.23;;;3.00;;
8871;SDS011;4472;52.092;9.820;2022-10-03T02:18:56;12.97;;;3.53;;
8871;SDS011;4472;52.092;9.820;2022-10-03T02:21:52;13.50;;;3.27;;
8871;SDS011;4472;52.092;9.820;2022-10-03T02:24:42;10.83;;;2.57;;
8871;SDS011;4472;52.092;9.820;2022-10-03T02:31:03;7.33;;;2.63;;
8871;SDS011;4472;52.092;9.820;2022-10-03T02:37:29;10.70;;;2.77;;
8871;SDS011;4472;52.092;9.820;2022-10-03T02:40:45;12.60;;;3.20;;
8871;SDS011;4472;52.092;9.820;2022-10-03T02:44:00;11.17;;;2.90;;
8871;SDS011;4472;52.092;9.820;2022-10-03T02:50:56;11.60;;;3.00;;
8871;SDS011;4472;52.092;9.820;2022-10-03T02:54:16;14.10;;;3.13;;
8871;SDS011;4472;52.092;9.820;2022-10-03T03:07:38;19.33;;;3.93;;
8871;SDS011;4472;52.092;9.820;2022-10-03T03:14:07;17.20;;;3.40;;
8871;SDS011;4472;52.092;9.820;2022-10-03T03:17:16;16.53;;;3.80;;
8871;SDS011;4472;52.092;9.820;2022-10-03T03:20:21;15.43;;;4.37;;
8871;SDS011;4472;52.092;9.820;2022-10-03T03:23:30;15.83;;;3.40;;
8871;SDS011;4472;52.092;9.820;2022-10-03T03:26:42;10.27;;;3.33;;
8871;SDS011;4472;52.092;9.820;2022-10-03T03:29:42;16.77;;;4.00;;
8871;SDS011;4472;52.092;9.820;2022-10-03T03:35:49;18.03;;;4.07;;
8871;SDS011;4472;52.092;9.820;2022-10-03T03:38:47;24.80;;;5.20;;
8871;SDS011;4472;52.092;9.820;2022-10-03T03:41:45;17.47;;;4.20;;
8871;SDS011;4472;52.092;9.820;2022-10-03T03:47:58;21.03;;;4.03;;
8871;SDS011;4472;52.092;9.820;2022-10-03T03:51:08;17.57;;;3.80;;
8871;SDS011;4472;52.092;9.820;2022-10-03T03:54:13;19.40;;;4.17;;
8871;SDS011;4472;52.092;9.820;2022-10-03T03:57:27;18.60;;;3.93;;
8871;SDS011;4472;52.092;9.820;2022-10-03T04:00:43;18.57;;;4.43;;
8871;SDS011;4472;52.092;9.820;2022-10-03T04:03:47;20.67;;;4.43;;
8871;SDS011;4472;52.092;9.820;2022-10-03T04:06:46;20.27;;;4.47;;
8871;SDS011;4472;52.092;9.820;2022-10-03T04:13:14;18.23;;;4.00;;
8871;SDS011;4472;52.092;9.820;2022-10-03T04:16:18;16.93;;;4.17;;
8871;SDS011;4472;52.092;9.820;2022-10-03T04:19:29;15.83;;;4.33;;
8871;SDS011;4472;52.092;9.820;2022-10-03T04:22:27;19.00;;;4.57;;
8871;SDS011;4472;52.092;9.820;2022-10-03T04:25:36;15.33;;;4.17;;
8871;SDS011;4472;52.092;9.820;2022-10-03T04:28:46;15.57;;;4.60;;
8871;SDS011;4472;52.092;9.820;2022-10-03T04:31:53;14.17;;;4.23;;
8871;SDS011;4472;52.092;9.820;2022-10-03T04:34:54;16.07;;;4.77;;
8871;SDS011;4472;52.092;9.820;2022-10-03T04:37:51;20.10;;;4.80;;
8871;SDS011;4472;52.092;9.820;2022-10-03T04:40:47;21.90;;;5.03;;
8871;SDS011;4472;52.092;9.820;2022-10-03T04:43:44;18.47;;;4.23;;
8871;SDS011;4472;52.092;9.820;2022-10-03T04:46:47;15.33;;;4.97;;
8871;SDS011;4472;52.092;9.820;2022-10-03T04:49:41;23.10;;;4.83;;
8871;SDS011;4472;52.092;9.820;2022-10-03T04:52:32;19.57;;;4.33;;
8871;SDS011;4472;52.092;9.820;2022-10-03T04:55:25;20.27;;;4.37;;
8871;SDS011;4472;52.092;9.820;2022-10-03T04:58:24;17.43;;;4.40;;
8871;SDS011;4472;52.092;9.820;2022-10-03T05:01:24;20.73;;;4.57;;
8871;SDS011;4472;52.092;9.820;2022-10-03T05:04:21;11.70;;;4.17;;
8871;SDS011;4472;52.092;9.820;2022-10-03T05:07:15;18.83;;;4.03;;
8871;SDS011;4472;52.092;9.820;2022-10-03T05:10:24;13.77;;;4.10;;
8871;SDS011;4472;52.092;9.820;2022-10-03T05:13:40;19.70;;;4.57;;
8871;SDS011;4472;52.092;9.820;2022-10-03T05:16:36;18.37;;;4.67;;
8871;SDS011;4472;52.092;9.820;2022-10-03T05:19:38;15.10;;;3.90;;
8871;SDS011;4472;52.092;9.820;2022-10-03T05:22:37;13.73;;;3.93;;
8871;SDS011;4472;52.092;9.820;2022-10-03T05:25:32;16.97;;;4.10;;
8871;SDS011;4472;52.092;9.820;2022-10-03T05:28:29;26.77;;;4.30;;
8871;SDS011;4472;52.092;9.820;2022-10-03T05:31:27;19.50;;;4.20;;
8871;SDS011;4472;52.092;9.820;2022-10-03T05:34:26;14.97;;;4.00;;
8871;SDS011;4472;52.092;9.820;2022-10-03T05:37:42;19.30;;;4.47;;
8871;SDS011;4472;52.092;9.820;2022-10-03T05:40:50;20.07;;;4.10;;
8871;SDS011;4472;52.092;9.820;2022-10-03T05:43:50;15.57;;;3.87;;
8871;SDS011;4472;52.092;9.820;2022-10-03T05:46:52;21.00;;;4.17;;
8871;SDS011;4472;52.092;9.820;2022-10-03T05:49:53;16.57;;;4.03;;
8871;SDS011;4472;52.092;9.820;2022-10-03T05:53:07;17.23;;;3.90;;
8871;SDS011;4472;52.092;9.820;2022-10-03T05:56:13;19.60;;;4.30;;
8871;SDS011;4472;52.092;9.820;2022-10-03T05:59:18;23.30;;;4.80;;
8871;SDS011;4472;52.092;9.820;2022-10-03T06:05:37;18.73;;;4.13;;
8871;SDS011;4472;52.092;9.820;2022-10-03T06:08:50;22.80;;;4.70;;
8871;SDS011;4472;52.092;9.820;2022-10-03T06:11:57;18.77;;;4.30;;
8871;SDS011;4472;52.092;9.820;2022-10-03T06:22:05;20.07;;;4.53;;
8871;SDS011;4472;52.092;9.820;2022-10-03T06:25:39;17.43;;;4.43;;
8871;SDS011;4472;52.092;9.820;2022-10-03T06:32:21;22.23;;;4.23;;
8871;SDS011;4472;52.092;9.820;2022-10-03T06:35:28;14.50;;;3.97;;
8871;SDS011;4472;52.092;9.820;2022-10-03T06:38:44;15.23;;;4.37;;
8871;SDS011;4472;52.092;9.820;2022-10-03T06:42:16;10.03;;;3.93;;
8871;SDS011;4472;52.092;9.820;2022-10-03T06:52:30;13.47;;;4.20;;
8871;SDS011;4472;52.092;9.820;2022-10-03T06:55:47;15.03;;;4.60;;
8871;SDS011;4472;52.092;9.820;2022-10-03T06:59:02;14.07;;;4.60;;
8871;SDS011;4472;52.092;9.820;2022-10-03T07:02:10;13.03;;;4.67;;
8871;SDS011;4472;52.092;9.820;2022-10-03T07:08:55;14.70;;;4.63;;
8871;SDS011;4472;52.092;9.820;2022-10-03T07:15:47;18.70;;;4.70;;
8871;SDS011;4472;52.092;9.820;2022-10-03T07:19:14;18.27;;;4.30;;
8871;SDS011;4472;52.092;9.820;2022-10-03T07:22:22;12.47;;;3.93;;
8871;SDS011;4472;52.092;9.820;2022-10-03T07:25:50;15.00;;;4.60;;
8871;SDS011;4472;52.092;9.820;2022-10-03T07:32:30;18.97;;;4.93;;
8871;SDS011;4472;52.092;9.820;2022-10-03T07:35:49;22.10;;;4.97;;
8871;SDS011;4472;52.092;9.820;2022-10-03T07:39:28;15.40;;;4.40;;
8871;SDS011;4472;52.092;9.820;2022-10-03T07:46:05;14.00;;;4.63;;
8871;SDS011;4472;52.092;9.820;2022-10-03T07:49:19;13.87;;;4.50;;
8871;SDS011;4472;52.092;9.820;2022-10-03T07:52:32;20.50;;;5.10;;
8871;SDS011;4472;52.092;9.820;2022-10-03T07:55:31;14.40;;;5.03;;
8871;SDS011;4472;52.092;9.820;2022-10-03T07:58:45;17.47;;;5.03;;
8871;SDS011;4472;52.092;9.820;2022-10-03T08:01:46;12.97;;;4.53;;
8871;SDS011;4472;52.092;9.820;2022-10-03T08:08:02;12.10;;;4.07;;
8871;SDS011;4472;52.092;9.820;2022-10-03T08:11:11;15.07;;;4.10;;
8871;SDS011;4472;52.092;9.820;2022-10-03T08:14:21;13.37;;;4.50;;
8871;SDS011;4472;52.092;9.820;2022-10-03T08:20:42;12.40;;;4.47;;
8871;SDS011;4472;52.092;9.820;2022-10-03T08:23:42;12.77;;;4.53;;
8871;SDS011;4472;52.092;9.820;2022-10-03T08:26:54;10.40;;;4.07;;
8871;SDS011;4472;52.092;9.820;2022-10-03T08:30:12;12.80;;;4.33;;
8871;SDS011;4472;52.092;9.820;2022-10-03T08:33:13;10.87;;;3.80;;
8871;SDS011;4472;52.092;9.820;2022-10-03T08:36:33;13.90;;;4.30;;
8871;SDS011;4472;52.092;9.820;2022-10-03T08:39:45;10.30;;;3.87;;
8871;SDS011;4472;52.092;9.820;2022-10-03T08:42:58;10.47;;;4.10;;
8871;SDS011;4472;52.092;9.820;2022-10-03T08:46:13;16.77;;;4.17;;
8871;SDS011;4472;52.092;9.820;2022-10-03T08:49:13;13.47;;;3.57;;
8871;SDS011;4472;52.092;9.820;2022-10-03T08:52:20;15.97;;;4.20;;
8871;SDS011;4472;52.092;9.820;2022-10-03T08:55:33;11.67;;;3.80;;
8871;SDS011;4472;52.092;9.820;2022-10-03T09:02:02;8.63;;;3.10;;
8871;SDS011;4472;52.092;9.820;2022-10-03T09:05:30;14.50;;;3.30;;
8871;SDS011;4472;52.092;9.820;2022-10-03T09:08:49;12.37;;;3.20;;
8871;SDS011;4472;52.092;9.820;2022-10-03T09:11:54;10.77;;;3.00;;
8871;SDS011;4472;52.092;9.820;2022-10-03T09:15:08;11.90;;;3.10;;
8871;SDS011;4472;52.092;9.820;2022-10-03T09:18:27;11.10;;;3.30;;
8871;SDS011;4472;52.092;9.820;2022-10-03T09:21:31;18.67;;;3.17;;
8871;SDS011;4472;52.092;9.820;2022-10-03T09:24:40;8.70;;;2.70;;
8871;SDS011;4472;52.092;9.820;2022-10-03T09:28:03;11.87;;;3.27;;
8871;SDS011;4472;52.092;9.820;2022-10-03T09:41:41;10.03;;;3.23;;
8871;SDS011;4472;52.092;9.820;2022-10-03T09:51:33;10.97;;;2.73;;
8871;SDS011;4472;52.092;9.820;2022-10-03T09:54:39;9.90;;;2.83;;
8871;SDS011;4472;52.092;9.820;2022-10-03T10:01:09;10.67;;;2.90;;
8871;SDS011;4472;52.092;9.820;2022-10-03T10:07:39;10.40;;;3.40;;
8871;SDS011;4472;52.092;9.820;2022-10-03T10:10:57;9.30;;;2.90;;
8871;SDS011;4472;52.092;9.820;2022-10-03T10:20:41;12.10;;;2.87;;
8871;SDS011;4472;52.092;9.820;2022-10-03T10:24:16;10.60;;;3.10;;
8871;SDS011;4472;52.092;9.820;2022-10-03T10:27:35;8.50;;;2.80;;
8871;SDS011;4472;52.092;9.820;2022-10-03T10:30:57;12.87;;;3.20;;
8871;SDS011;4472;52.092;9.820;2022-10-03T10:34:10;10.73;;;2.67;;
8871;SDS011;4472;52.092;9.820;2022-10-03T10:55:09;11.23;;;3.10;;
8871;SDS011;4472;52.092;9.820;2022-10-03T11:09:02;6.93;;;3.13;;
8871;SDS011;4472;52.092;9.820;2022-10-03T11:12:29;7.47;;;3.30;;
8871;SDS011;4472;52.092;9.820;2022-10-03T11:16:05;8.93;;;2.30;;
8871;SDS011;4472;52.092;9.820;2022-10-03T11:23:15;11.50;;;2.80;;
8871;SDS011;4472;52.092;9.820;2022-10-03T11:33:40;11.53;;;2.53;;
8871;SDS011;4472;52.092;9.820;2022-10-03T11:40:23;5.77;;;2.20;;
8871;SDS011;4472;52.092;9.820;2022-10-03T11:46:48;5.80;;;2.43;;
8871;SDS011;4472;52.092;9.820;2022-10-03T11:49:52;9.67;;;2.50;;
8871;SDS011;4472;52.092;9.820;2022-10-03T11:59:33;8.17;;;2.13;;
8871;SDS011;4472;52.092;9.820;2022-10-03T12:02:54;6.93;;;2.40;;
8871;SDS011;4472;52.092;9.820;2022-10-03T12:05:58;9.03;;;2.70;;
8871;SDS011;4472;52.092;9.820;2022-10-03T12:09:09;5.80;;;1.87;;
8871;SDS011;4472;52.092;9.820;2022-10-03T12:12:04;6.83;;;1.87;;
8871;SDS011;4472;52.092;9.820;2022-10-03T12:14:59;6.57;;;1.67;;
8871;SDS011;4472;52.092;9.820;2022-10-03T12:18:00;6.17;;;1.90;;
8871;SDS011;4472;52.092;9.820;2022-10-03T12:20:57;7.70;;;2.00;;
8871;SDS011;4472;52.092;9.820;2022-10-03T12:27:12;5.90;;;1.80;;
8871;SDS011;4472;52.092;9.820;2022-10-03T12:30:11;8.23;;;2.30;;
8871;SDS011;4472;52.092;9.820;2022-10-03T12:33:06;6.90;;;2.13;;
8871;SDS011;4472;52.092;9.820;2022-10-03T12:36:04;9.43;;;2.23;;
8871;SDS011;4472;52.092;9.820;2022-10-03T12:39:02;6.83;;;2.10;;
8871;SDS011;4472;52.092;9.820;2022-10-03T12:42:09;7.17;;;2.10;;
8871;SDS011;4472;52.092;9.820;2022-10-03T12:45:12;8.47;;;2.33;;
8871;SDS011;4472;52.092;9.820;2022-10-03T12:48:13;6.23;;;2.20;;
8871;SDS011;4472;52.092;9.820;2022-10-03T12:51:20;8.87;;;2.13;;
8871;SDS011;4472;52.092;9.820;2022-10-03T12:54:24;6.77;;;2.33;;
8871;SDS011;4472;52.092;9.820;2022-10-03T13:00:40;10.17;;;2.10;;
8871;SDS011;4472;52.092;9.820;2022-10-03T13:03:42;9.77;;;1.67;;
8871;SDS011;4472;52.092;9.820;2022-10-03T13:06:44;8.47;;;1.90;;
8871;SDS011;4472;52.092;9.820;2022-10-03T13:13:03;11.30;;;2.67;;
8871;SDS011;4472;52.092;9.820;2022-10-03T13:16:13;5.50;;;2.00;;
8871;SDS011;4472;52.092;9.820;2022-10-03T13:19:10;5.23;;;1.90;;
8871;SDS011;4472;52.092;9.820;2022-10-03T13:22:02;10.13;;;2.10;;
8871;SDS011;4472;52.092;9.820;2022-10-03T13:25:00;6.23;;;2.20;;
8871;SDS011;4472;52.092;9.820;2022-10-03T13:27:51;8.17;;;2.10;;
8871;SDS011;4472;52.092;9.820;2022-10-03T13:30:45;4.53;;;2.10;;
8871;SDS011;4472;52.092;9.820;2022-10-03T13:33:39;4.80;;;1.90;;
8871;SDS011;4472;52.092;9.820;2022-10-03T13:36:32;6.43;;;2.43;;
8871;SDS011;4472;52.092;9.820;2022-10-03T13:39:25;6.70;;;1.87;;
8871;SDS011;4472;52.092;9.820;2022-10-03T13:42:19;6.33;;;2.00;;
8871;SDS011;4472;52.092;9.820;2022-10-03T13:45:21;4.10;;;2.10;;
8871;SDS011;4472;52.092;9.820;2022-10-03T13:48:12;5.60;;;2.00;;
8871;SDS011;4472;52.092;9.820;2022-10-03T13:51:03;8.40;;;2.17;;
8871;SDS011;4472;52.092;9.820;2022-10-03T13:54:01;6.63;;;2.07;;
8871;SDS011;4472;52.092;9.820;2022-10-03T13:56:53;11.40;;;2.17;;
8871;SDS011;4472;52.092;9.820;2022-10-03T13:59:46;7.53;;;2.30;;
8871;SDS011;4472;52.092;9.820;2022-10-03T14:05:57;6.87;;;2.90;;
8871;SDS011;4472;52.092;9.820;2022-10-03T14:12:27;10.03;;;3.63;;
8871;SDS011;4472;52.092;9.820;2022-10-03T14:15:28;7.20;;;2.20;;
8871;SDS011;4472;52.092;9.820;2022-10-03T14:18:27;3.83;;;1.80;;
8871;SDS011;4472;52.092;9.820;2022-10-03T14:21:39;5.90;;;1.87;;
8871;SDS011;4472;52.092;9.820;2022-10-03T14:24:51;5.10;;;1.80;;
8871;SDS011;4472;52.092;9.820;2022-10-03T14:27:48;6.50;;;1.70;;
8871;SDS011;4472;52.092;9.820;2022-10-03T14:30:44;6.13;;;2.30;;
8871;SDS011;4472;52.092;9.820;2022-10-03T14:33:40;3.47;;;1.80;;
8871;SDS011;4472;52.092;9.820;2022-10-03T14:36:33;6.07;;;1.93;;
8871;SDS011;4472;52.092;9.820;2022-10-03T14:39:28;7.03;;;1.87;;
8871;SDS011;4472;52.092;9.820;2022-10-03T14:45:41;4.90;;;1.93;;
8871;SDS011;4472;52.092;9.820;2022-10-03T14:48:33;5.27;;;1.70;;
8871;SDS011;4472;52.092;9.820;2022-10-03T14:51:25;6.27;;;1.90;;
8871;SDS011;4472;52.092;9.820;2022-10-03T14:54:17;5.73;;;2.07;;
8871;SDS011;4472;52.092;9.820;2022-10-03T14:57:17;4.93;;;2.30;;
8871;SDS011;4472;52.092;9.820;2022-10-03T15:00:22;7.50;;;2.20;;
8871;SDS011;4472;52.092;9.820;2022-10-03T15:03:19;6.03;;;1.80;;
8871;SDS011;4472;52.092;9.820;2022-10-03T15:06:30;3.70;;;1.60;;
8871;SDS011;4472;52.092;9.820;2022-10-03T15:09:25;7.93;;;2.03;;
8871;SDS011;4472;52.092;9.820;2022-10-03T15:12:18;5.77;;;1.80;;
8871;SDS011;4472;52.092;9.820;2022-10-03T15:15:09;7.40;;;2.07;;
8871;SDS011;4472;52.092;9.820;2022-10-03T15:18:02;7.23;;;2.50;;
8871;SDS011;4472;52.092;9.820;2022-10-03T15:20:52;6.20;;;2.00;;
8871;SDS011;4472;52.092;9.820;2022-10-03T15:23:40;6.70;;;2.10;;
8871;SDS011;4472;52.092;9.820;2022-10-03T15:26:31;4.60;;;1.97;;
8871;SDS011;4472;52.092;9.820;2022-10-03T15:29:21;3.30;;;1.70;;
8871;SDS011;4472;52.092;9.820;2022-10-03T15:32:16;8.50;;;2.13;;
8871;SDS011;4472;52.092;9.820;2022-10-03T15:35:13;7.20;;;2.13;;
8871;SDS011;4472;52.092;9.820;2022-10-03T15:38:12;5.23;;;1.70;;
8871;SDS011;4472;52.092;9.820;2022-10-03T15:41:08;4.63;;;1.60;;
8871;SDS011;4472;52.092;9.820;2022-10-03T15:43:58;6.00;;;2.30;;
8871;SDS011;4472;52.092;9.820;2022-10-03T15:46:49;5.63;;;1.87;;
8871;SDS011;4472;52.092;9.820;2022-10-03T15:49:42;5.37;;;1.60;;
8871;SDS011;4472;52.092;9.820;2022-10-03T15:52:36;6.27;;;1.87;;
8871;SDS011;4472;52.092;9.820;2022-10-03T15:55:28;6.63;;;2.33;;
8871;SDS011;4472;52.092;9.820;2022-10-03T15:58:22;8.67;;;2.10;;
8871;SDS011;4472;52.092;9.820;2022-10-03T16:01:15;4.87;;;1.90;;
8871;SDS011;4472;52.092;9.820;2022-10-03T16:04:06;6.33;;;2.60;;
8871;SDS011;4472;52.092;9.820;2022-10-03T16:07:05;6.13;;;1.80;;
8871;SDS011;4472;52.092;9.820;2022-10-03T16:10:02;4.77;;;1.87;;
8871;SDS011;4472;52.092;9.820;2022-10-03T16:13:05;7.17;;;1.93;;
8871;SDS011;4472;52.092;9.820;2022-10-03T16:16:07;6.90;;;1.73;;
8871;SDS011;4472;52.092;9.820;2022-10-03T16:19:01;5.60;;;1.70;;
8871;SDS011;4472;52.092;9.820;2022-10-03T16:22:15;5.00;;;1.80;;
8871;SDS011;4472;52.092;9.820;2022-10-03T16:25:12;5.70;;;1.70;;
8871;SDS011;4472;52.092;9.820;2022-10-03T16:28:04;5.03;;;2.00;;
8871;SDS011;4472;52.092;9.820;2022-10-03T16:30:54;5.23;;;1.90;;
8871;SDS011;4472;52.092;9.820;2022-10-03T16:33:46;8.77;;;2.70;;
8871;SDS011;4472;52.092;9.820;2022-10-03T16:36:40;6.43;;;2.37;;
8871;SDS011;4472;52.092;9.820;2022-10-03T16:39:29;7.10;;;2.40;;
8871;SDS011;4472;52.092;9.820;2022-10-03T16:42:23;9.33;;;2.73;;
8871;SDS011;4472;52.092;9.820;2022-10-03T16:45:17;6.60;;;2.17;;
8871;SDS011;4472;52.092;9.820;2022-10-03T16:48:10;4.43;;;1.97;;
8871;SDS011;4472;52.092;9.820;2022-10-03T16:51:21;9.33;;;1.80;;
8871;SDS011;4472;52.092;9.820;2022-10-03T16:54:11;9.63;;;1.97;;
8871;SDS011;4472;52.092;9.820;2022-10-03T16:57:01;7.57;;;2.40;;
8871;SDS011;4472;52.092;9.820;2022-10-03T16:59:55;9.37;;;2.37;;
8871;SDS011;4472;52.092;9.820;2022-10-03T17:02:44;7.30;;;2.17;;
8871;SDS011;4472;52.092;9.820;2022-10-03T17:05:34;9.07;;;2.37;;
8871;SDS011;4472;52.092;9.820;2022-10-03T17:08:30;3.87;;;1.97;;
8871;SDS011;4472;52.092;9.820;2022-10-03T17:11:21;6.67;;;2.30;;
8871;SDS011;4472;52.092;9.820;2022-10-03T17:14:14;4.63;;;2.00;;
8871;SDS011;4472;52.092;9.820;2022-10-03T17:17:06;11.87;;;2.33;;
8871;SDS011;4472;52.092;9.820;2022-10-03T17:20:02;4.97;;;2.37;;
8871;SDS011;4472;52.092;9.820;2022-10-03T17:22:54;6.80;;;2.30;;
8871;SDS011;4472;52.092;9.820;2022-10-03T17:25:47;6.90;;;2.23;;
8871;SDS011;4472;52.092;9.820;2022-10-03T17:28:43;9.67;;;2.37;;
8871;SDS011;4472;52.092;9.820;2022-10-03T17:31:40;7.43;;;3.10;;
8871;SDS011;4472;52.092;9.820;2022-10-03T17:34:33;9.23;;;5.20;;
8871;SDS011;4472;52.092;9.820;2022-10-03T17:37:42;14.57;;;7.20;;
8871;SDS011;4472;52.092;9.820;2022-10-03T17:40:48;13.93;;;6.60;;
8871;SDS011;4472;52.092;9.820;2022-10-03T17:43:42;11.87;;;7.00;;
8871;SDS011;4472;52.092;9.820;2022-10-03T17:46:36;9.60;;;5.10;;
8871;SDS011;4472;52.092;9.820;2022-10-03T17:49:37;12.40;;;5.17;;
8871;SDS011;4472;52.092;9.820;2022-10-03T17:52:31;9.87;;;4.60;;
8871;SDS011;4472;52.092;9.820;2022-10-03T17:55:22;9.13;;;4.00;;
8871;SDS011;4472;52.092;9.820;2022-10-03T17:58:15;9.47;;;4.00;;
8871;SDS011;4472;52.092;9.820;2022-10-03T18:01:07;11.07;;;4.30;;
8871;SDS011;4472;52.092;9.820;2022-10-03T18:03:59;8.50;;;4.00;;
8871;SDS011;4472;52.092;9.820;2022-10-03T18:06:50;11.47;;;4.50;;
8871;SDS011;4472;52.092;9.820;2022-10-03T18:09:39;13.53;;;4.67;;
8871;SDS011;4472;52.092;9.820;2022-10-03T18:12:31;9.07;;;4.57;;
8871;SDS011;4472;52.092;9.820;2022-10-03T18:19:02;13.10;;;5.03;;
8871;SDS011;4472;52.092;9.820;2022-10-03T18:22:00;9.97;;;5.57;;
8871;SDS011;4472;52.092;9.820;2022-10-03T18:24:57;15.27;;;5.10;;
8871;SDS011;4472;52.092;9.820;2022-10-03T18:28:13;14.67;;;4.40;;
8871;SDS011;4472;52.092;9.820;2022-10-03T18:31:07;15.63;;;4.93;;
8871;SDS011;4472;52.092;9.820;2022-10-03T18:33:58;11.63;;;4.90;;
8871;SDS011;4472;52.092;9.820;2022-10-03T18:36:49;9.47;;;4.10;;
8871;SDS011;4472;52.092;9.820;2022-10-03T18:39:42;15.33;;;4.40;;
8871;SDS011;4472;52.092;9.820;2022-10-03T18:42:32;13.57;;;4.47;;
8871;SDS011;4472;52.092;9.820;2022-10-03T18:45:23;9.93;;;4.77;;
8871;SDS011;4472;52.092;9.820;2022-10-03T18:48:16;10.23;;;5.63;;
8871;SDS011;4472;52.092;9.820;2022-10-03T18:51:12;12.93;;;6.50;;
8871;SDS011;4472;52.092;9.820;2022-10-03T18:54:06;16.33;;;6.90;;
8871;SDS011;4472;52.092;9.820;2022-10-03T18:57:10;23.53;;;7.33;;
8871;SDS011;4472;52.092;9.820;2022-10-03T19:00:05;18.03;;;7.33;;
8871;SDS011;4472;52.092;9.820;2022-10-03T19:03:03;14.57;;;6.60;;
8871;SDS011;4472;52.092;9.820;2022-10-03T19:06:02;11.53;;;5.40;;
8871;SDS011;4472;52.092;9.820;2022-10-03T19:08:52;10.93;;;3.77;;
8871;SDS011;4472;52.092;9.820;2022-10-03T19:11:45;9.10;;;3.20;;
8871;SDS011;4472;52.092;9.820;2022-10-03T19:14:42;8.40;;;3.40;;
8871;SDS011;4472;52.092;9.820;2022-10-03T19:17:46;8.83;;;4.00;;
8871;SDS011;4472;52.092;9.820;2022-10-03T19:20:40;6.57;;;2.90;;
8871;SDS011;4472;52.092;9.820;2022-10-03T19:23:30;9.33;;;4.40;;
8871;SDS011;4472;52.092;9.820;2022-10-03T19:26:23;12.43;;;5.30;;
8871;SDS011;4472;52.092;9.820;2022-10-03T19:29:14;12.97;;;5.10;;
8871;SDS011;4472;52.092;9.820;2022-10-03T19:32:15;12.67;;;4.73;;
8871;SDS011;4472;52.092;9.820;2022-10-03T19:35:09;11.40;;;4.60;;
8871;SDS011;4472;52.092;9.820;2022-10-03T19:38:01;12.33;;;4.23;;
8871;SDS011;4472;52.092;9.820;2022-10-03T19:40:53;11.30;;;4.83;;
8871;SDS011;4472;52.092;9.820;2022-10-03T19:43:48;10.60;;;4.43;;
8871;SDS011;4472;52.092;9.820;2022-10-03T19:47:00;10.40;;;4.70;;
8871;SDS011;4472;52.092;9.820;2022-10-03T19:49:53;7.93;;;3.73;;
8871;SDS011;4472;52.092;9.820;2022-10-03T19:52:51;9.20;;;4.40;;
8871;SDS011;4472;52.092;9.820;2022-10-03T19:55:38;9.70;;;4.33;;
8871;SDS011;4472;52.092;9.820;2022-10-03T19:58:27;11.47;;;5.17;;
8871;SDS011;4472;52.092;9.820;2022-10-03T20:01:15;12.17;;;4.97;;
8871;SDS011;4472;52.092;9.820;2022-10-03T20:04:08;12.97;;;4.97;;
8871;SDS011;4472;52.092;9.820;2022-10-03T20:06:58;12.83;;;5.83;;
8871;SDS011;4472;52.092;9.820;2022-10-03T20:09:54;15.77;;;6.30;;
8871;SDS011;4472;52.092;9.820;2022-10-03T20:12:42;15.97;;;5.37;;
8871;SDS011;4472;52.092;9.820;2022-10-03T20:15:36;10.73;;;5.07;;
8871;SDS011;4472;52.092;9.820;2022-10-03T20:18:28;13.27;;;4.60;;
8871;SDS011;4472;52.092;9.820;2022-10-03T20:21:20;15.53;;;4.37;;
8871;SDS011;4472;52.092;9.820;2022-10-03T20:24:15;6.53;;;3.20;;
8871;SDS011;4472;52.092;9.820;2022-10-03T20:27:10;9.37;;;2.80;;
8871;SDS011;4472;52.092;9.820;2022-10-03T20:30:15;6.70;;;3.20;;
8871;SDS011;4472;52.092;9.820;2022-10-03T20:33:13;7.60;;;2.60;;
8871;SDS011;4472;52.092;9.820;2022-10-03T20:36:05;5.40;;;2.80;;
8871;SDS011;4472;52.092;9.820;2022-10-03T20:39:03;7.47;;;3.57;;
8871;SDS011;4472;52.092;9.820;2022-10-03T20:41:58;6.20;;;3.60;;
8871;SDS011;4472;52.092;9.820;2022-10-03T20:44:49;7.03;;;3.60;;
8871;SDS011;4472;52.092;9.820;2022-10-03T20:47:46;10.87;;;3.53;;
8871;SDS011;4472;52.092;9.820;2022-10-03T20:50:44;9.87;;;3.23;;
8871;SDS011;4472;52.092;9.820;2022-10-03T20:53:32;9.73;;;3.40;;
8871;SDS011;4472;52.092;9.820;2022-10-03T20:56:24;9.77;;;3.90;;
8871;SDS011;4472;52.092;9.820;2022-10-03T20:59:22;13.43;;;3.07;;
8871;SDS011;4472;52.092;9.820;2022-10-03T21:02:16;11.67;;;4.67;;
8871;SDS011;4472;52.092;9.820;2022-10-03T21:05:13;15.73;;;7.40;;
8871;SDS011;4472;52.092;9.820;2022-10-03T21:08:09;14.23;;;5.10;;
8871;SDS011;4472;52.092;9.820;2022-10-03T21:11:11;8.97;;;4.03;;
8871;SDS011;4472;52.092;9.820;2022-10-03T21:14:06;11.07;;;3.40;;
8871;SDS011;4472;52.092;9.820;2022-10-03T21:17:02;7.27;;;3.33;;
8871;SDS011;4472;52.092;9.820;2022-10-03T21:19:50;9.83;;;3.00;;
8871;SDS011;4472;52.092;9.820;2022-10-03T21:22:39;10.37;;;3.13;;
8871;SDS011;4472;52.092;9.820;2022-10-03T21:25:29;7.83;;;3.43;;
8871;SDS011;4472;52.092;9.820;2022-10-03T21:28:23;10.00;;;3.40;;
8871;SDS011;4472;52.092;9.820;2022-10-03T21:31:23;10.03;;;3.67;;
8871;SDS011;4472;52.092;9.820;2022-10-03T21:34:24;7.43;;;3.03;;
8871;SDS011;4472;52.092;9.820;2022-10-03T21:37:17;8.17;;;3.17;;
8871;SDS011;4472;52.092;9.820;2022-10-03T21:40:16;12.83;;;3.63;;
8871;SDS011;4472;52.092;9.820;2022-10-03T21:43:13;10.03;;;3.70;;
8871;SDS011;4472;52.092;9.820;2022-10-03T21:46:10;7.50;;;3.40;;